sensor_id;sensor_type;location;lat;lon;timestamp;P1;durP1;ratioP1;P2;durP2;ratioP2
6019;SDS011;3038;51.122;6.840;2023-10-09T00:00:26;42.67;;;26.13;;
6019;SDS011;3038;51.122;6.840;2023-10-09T00:03:03;46.67;;;28.40;;
6019;SDS011;3038;51.122;6.840;2023-10-09T00:05:32;44.80;;;25.53;;
6019;SDS011;3038;51.122;6.840;2023-10-09T00:08:10;40.63;;;26.27;;
6019;SDS011;3038;51.122;6.840;2023-10-09T00:10:44;38.73;;;24.40;;
6019;SDS011;3038;51.122;6.840;2023-10-09T00:13:30;44.63;;;27.17;;
6019;SDS011;3038;51.122;6.840;2023-10-09T00:15:57;47.20;;;26.00;;
6019;SDS011;3038;51.122;6.840;2023-10-09T00:18:33;40.67;;;24.23;;
6019;SDS011;3038;51.122;6.840;2023-10-09T00:21:02;42.60;;;25.57;;
6019;SDS011;3038;51.122;6.840;2023-10-09T00:23:37;47.77;;;28.03;;
6019;SDS011;3038;51.122;6.840;2023-10-09T00:26:08;41.57;;;26.27;;
6019;SDS011;3038;51.122;6.840;2023-10-09T00:28:36;43.67;;;26.80;;
6019;SDS011;3038;51.122;6.840;2023-10-09T00:31:06;39.70;;;24.30;;
6019;SDS011;3038;51.122;6.840;2023-10-09T00:33:33;41.13;;;26.20;;
6019;SDS011;3038;51.122;6.840;2023-10-09T00:36:04;41.70;;;25.57;;
6019;SDS011;3038;51.122;6.840;2023-10-09T00:38:36;45.70;;;25.50;;
6019;SDS011;3038;51.122;6.840;2023-10-09T00:41:05;50.30;;;28.57;;
6019;SDS011;3038;51.122;6.840;2023-10-09T00:43:33;39.33;;;25.50;;
6019;SDS011;3038;51.122;6.840;2023-10-09T00:46:01;45.10;;;26.20;;
6019;SDS011;3038;51.122;6.840;2023-10-09T00:48:28;49.47;;;25.53;;
6019;SDS011;3038;51.122;6.840;2023-10-09T00:51:02;50.40;;;26.80;;
6019;SDS011;3038;51.122;6.840;2023-10-09T00:53:48;46.67;;;27.70;;
6019;SDS011;3038;51.122;6.840;2023-10-09T00:56:23;50.37;;;27.53;;
6019;SDS011;3038;51.122;6.840;2023-10-09T00:58:58;48.80;;;27.60;;
6019;SDS011;3038;51.122;6.840;2023-10-09T01:01:35;41.50;;;25.20;;
6019;SDS011;3038;51.122;6.840;2023-10-09T01:04:15;48.53;;;27.00;;
6019;SDS011;3038;51.122;6.840;2023-10-09T01:06:45;46.80;;;27.03;;
6019;SDS011;3038;51.122;6.840;2023-10-09T01:09:30;38.13;;;23.67;;
6019;SDS011;3038;51.122;6.840;2023-10-09T01:12:02;39.27;;;24.17;;
6019;SDS011;3038;51.122;6.840;2023-10-09T01:14:27;41.63;;;25.47;;
6019;SDS011;3038;51.122;6.840;2023-10-09T01:16:53;41.07;;;24.30;;
6019;SDS011;3038;51.122;6.840;2023-10-09T01:19:19;45.03;;;26.40;;
6019;SDS011;3038;51.122;6.840;2023-10-09T01:21:49;41.70;;;25.77;;
6019;SDS011;3038;51.122;6.840;2023-10-09T01:24:18;43.30;;;24.70;;
6019;SDS011;3038;51.122;6.840;2023-10-09T01:26:47;33.10;;;22.97;;
6019;SDS011;3038;51.122;6.840;2023-10-09T01:29:18;42.60;;;24.27;;
6019;SDS011;3038;51.122;6.840;2023-10-09T01:31:45;42.93;;;24.27;;
6019;SDS011;3038;51.122;6.840;2023-10-09T01:45:13;42.90;;;24.70;;
6019;SDS011;3038;51.122;6.840;2023-10-09T01:47:45;43.43;;;25.07;;
6019;SDS011;3038;51.122;6.840;2023-10-09T01:50:16;36.23;;;23.50;;
6019;SDS011;3038;51.122;6.840;2023-10-09T01:52:47;39.93;;;23.80;;
6019;SDS011;3038;51.122;6.840;2023-10-09T01:55:13;45.87;;;24.07;;
6019;SDS011;3038;51.122;6.840;2023-10-09T01:57:52;37.50;;;22.57;;
6019;SDS011;3038;51.122;6.840;2023-10-09T02:00:17;40.77;;;25.27;;
6019;SDS011;3038;51.122;6.840;2023-10-09T02:02:48;34.87;;;25.67;;
6019;SDS011;3038;51.122;6.840;2023-10-09T02:05:15;36.10;;;21.80;;
6019;SDS011;3038;51.122;6.840;2023-10-09T02:07:41;36.57;;;23.40;;
6019;SDS011;3038;51.122;6.840;2023-10-09T02:10:12;32.40;;;22.17;;
6019;SDS011;3038;51.122;6.840;2023-10-09T02:13:04;33.07;;;21.60;;
6019;SDS011;3038;51.122;6.840;2023-10-09T02:15:37;35.27;;;22.03;;
6019;SDS011;3038;51.122;6.840;2023-10-09T02:18:09;36.00;;;22.47;;
6019;SDS011;3038;51.122;6.840;2023-10-09T02:20:50;33.07;;;21.87;;
6019;SDS011;3038;51.122;6.840;2023-10-09T02:23:29;35.87;;;23.87;;
6019;SDS011;3038;51.122;6.840;2023-10-09T02:26:25;40.40;;;22.73;;
6019;SDS011;3038;51.122;6.840;2023-10-09T02:28:57;35.37;;;22.73;;
6019;SDS011;3038;51.122;6.840;2023-10-09T02:31:29;34.73;;;23.03;;
6019;SDS011;3038;51.122;6.840;2023-10-09T02:34:05;34.67;;;22.90;;
6019;SDS011;3038;51.122;6.840;2023-10-09T02:36:31;35.43;;;22.57;;
6019;SDS011;3038;51.122;6.840;2023-10-09T02:38:56;31.07;;;21.50;;
6019;SDS011;3038;51.122;6.840;2023-10-09T02:41:21;32.90;;;22.43;;
6019;SDS011;3038;51.122;6.840;2023-10-09T02:43:53;35.70;;;23.43;;
6019;SDS011;3038;51.122;6.840;2023-10-09T02:46:20;33.00;;;21.93;;
6019;SDS011;3038;51.122;6.840;2023-10-09T02:48:53;34.97;;;21.00;;
6019;SDS011;3038;51.122;6.840;2023-10-09T02:51:21;36.47;;;22.37;;
6019;SDS011;3038;51.122;6.840;2023-10-09T02:53:51;39.47;;;23.33;;
6019;SDS011;3038;51.122;6.840;2023-10-09T02:56:17;34.07;;;22.00;;
6019;SDS011;3038;51.122;6.840;2023-10-09T02:58:49;32.37;;;22.37;;
6019;SDS011;3038;51.122;6.840;2023-10-09T03:01:20;35.13;;;22.40;;
6019;SDS011;3038;51.122;6.840;2023-10-09T03:03:45;30.60;;;20.23;;
6019;SDS011;3038;51.122;6.840;2023-10-09T03:06:12;36.30;;;20.53;;
6019;SDS011;3038;51.122;6.840;2023-10-09T03:08:39;33.47;;;22.27;;
6019;SDS011;3038;51.122;6.840;2023-10-09T03:11:07;29.33;;;20.03;;
6019;SDS011;3038;51.122;6.840;2023-10-09T03:13:40;31.57;;;20.67;;
6019;SDS011;3038;51.122;6.840;2023-10-09T03:16:08;33.60;;;21.20;;
6019;SDS011;3038;51.122;6.840;2023-10-09T03:18:39;28.10;;;20.40;;
6019;SDS011;3038;51.122;6.840;2023-10-09T03:21:05;33.27;;;20.50;;
6019;SDS011;3038;51.122;6.840;2023-10-09T03:23:31;27.13;;;18.83;;
6019;SDS011;3038;51.122;6.840;2023-10-09T03:25:57;32.20;;;19.80;;
6019;SDS011;3038;51.122;6.840;2023-10-09T03:28:24;29.00;;;19.50;;
6019;SDS011;3038;51.122;6.840;2023-10-09T03:30:49;29.70;;;19.83;;
6019;SDS011;3038;51.122;6.840;2023-10-09T03:33:15;30.23;;;19.73;;
6019;SDS011;3038;51.122;6.840;2023-10-09T03:35:44;29.30;;;19.07;;
6019;SDS011;3038;51.122;6.840;2023-10-09T03:38:09;28.97;;;19.70;;
6019;SDS011;3038;51.122;6.840;2023-10-09T03:40:37;31.37;;;19.80;;
6019;SDS011;3038;51.122;6.840;2023-10-09T03:43:07;28.70;;;19.47;;
6019;SDS011;3038;51.122;6.840;2023-10-09T03:45:35;30.23;;;20.73;;
6019;SDS011;3038;51.122;6.840;2023-10-09T03:48:03;26.57;;;19.50;;
6019;SDS011;3038;51.122;6.840;2023-10-09T03:50:37;26.83;;;19.80;;
6019;SDS011;3038;51.122;6.840;2023-10-09T03:53:06;26.70;;;19.80;;
6019;SDS011;3038;51.122;6.840;2023-10-09T03:55:33;27.63;;;20.33;;
6019;SDS011;3038;51.122;6.840;2023-10-09T03:57:59;27.93;;;18.47;;
6019;SDS011;3038;51.122;6.840;2023-10-09T04:00:28;29.47;;;20.50;;
6019;SDS011;3038;51.122;6.840;2023-10-09T04:02:57;26.57;;;18.80;;
6019;SDS011;3038;51.122;6.840;2023-10-09T04:05:24;25.33;;;19.10;;
6019;SDS011;3038;51.122;6.840;2023-10-09T04:07:49;25.60;;;16.63;;
6019;SDS011;3038;51.122;6.840;2023-10-09T04:10:18;28.87;;;19.83;;
6019;SDS011;3038;51.122;6.840;2023-10-09T04:13:17;28.40;;;18.53;;
6019;SDS011;3038;51.122;6.840;2023-10-09T04:15:48;23.37;;;17.77;;
6019;SDS011;3038;51.122;6.840;2023-10-09T04:18:15;24.60;;;18.20;;
6019;SDS011;3038;51.122;6.840;2023-10-09T04:20:41;24.97;;;16.80;;
6019;SDS011;3038;51.122;6.840;2023-10-09T04:23:36;25.37;;;17.90;;
6019;SDS011;3038;51.122;6.840;2023-10-09T04:26:21;28.40;;;16.83;;
6019;SDS011;3038;51.122;6.840;2023-10-09T04:28:50;25.07;;;16.50;;
6019;SDS011;3038;51.122;6.840;2023-10-09T04:31:17;23.33;;;17.00;;
6019;SDS011;3038;51.122;6.840;2023-10-09T04:33:45;29.10;;;18.53;;
6019;SDS011;3038;51.122;6.840;2023-10-09T04:36:19;21.27;;;17.10;;
6019;SDS011;3038;51.122;6.840;2023-10-09T04:38:53;24.53;;;18.67;;
6019;SDS011;3038;51.122;6.840;2023-10-09T04:41:45;24.30;;;18.60;;
6019;SDS011;3038;51.122;6.840;2023-10-09T04:44:10;25.10;;;17.13;;
6019;SDS011;3038;51.122;6.840;2023-10-09T04:46:48;21.70;;;17.57;;
6019;SDS011;3038;51.122;6.840;2023-10-09T04:49:34;21.10;;;16.07;;
6019;SDS011;3038;51.122;6.840;2023-10-09T04:52:12;25.77;;;16.77;;
6019;SDS011;3038;51.122;6.840;2023-10-09T04:54:50;25.47;;;17.33;;
6019;SDS011;3038;51.122;6.840;2023-10-09T04:57:34;20.43;;;16.80;;
6019;SDS011;3038;51.122;6.840;2023-10-09T05:02:48;23.33;;;16.30;;
6019;SDS011;3038;51.122;6.840;2023-10-09T05:05:22;20.37;;;15.70;;
6019;SDS011;3038;51.122;6.840;2023-10-09T05:08:04;20.30;;;15.43;;
6019;SDS011;3038;51.122;6.840;2023-10-09T05:18:38;19.50;;;15.60;;
6019;SDS011;3038;51.122;6.840;2023-10-09T05:21:04;22.07;;;15.70;;
6019;SDS011;3038;51.122;6.840;2023-10-09T05:23:41;19.17;;;15.73;;
6019;SDS011;3038;51.122;6.840;2023-10-09T05:26:16;20.40;;;15.87;;
6019;SDS011;3038;51.122;6.840;2023-10-09T05:29:02;18.93;;;14.80;;
6019;SDS011;3038;51.122;6.840;2023-10-09T05:31:45;21.20;;;15.80;;
6019;SDS011;3038;51.122;6.840;2023-10-09T05:34:22;17.90;;;14.70;;
6019;SDS011;3038;51.122;6.840;2023-10-09T05:36:48;19.13;;;15.50;;
6019;SDS011;3038;51.122;6.840;2023-10-09T05:39:14;22.20;;;15.57;;
6019;SDS011;3038;51.122;6.840;2023-10-09T05:41:44;19.10;;;15.37;;
6019;SDS011;3038;51.122;6.840;2023-10-09T05:44:17;21.33;;;14.70;;
6019;SDS011;3038;51.122;6.840;2023-10-09T05:47:06;23.60;;;15.07;;
6019;SDS011;3038;51.122;6.840;2023-10-09T05:49:50;19.53;;;13.97;;
6019;SDS011;3038;51.122;6.840;2023-10-09T05:52:31;20.23;;;15.67;;
6019;SDS011;3038;51.122;6.840;2023-10-09T05:55:07;19.53;;;15.30;;
6019;SDS011;3038;51.122;6.840;2023-10-09T06:00:38;18.37;;;14.90;;
6019;SDS011;3038;51.122;6.840;2023-10-09T06:03:25;20.23;;;14.93;;
6019;SDS011;3038;51.122;6.840;2023-10-09T06:05:54;17.17;;;14.53;;
6019;SDS011;3038;51.122;6.840;2023-10-09T06:08:21;20.53;;;14.77;;
6019;SDS011;3038;51.122;6.840;2023-10-09T06:11:12;19.13;;;14.50;;
6019;SDS011;3038;51.122;6.840;2023-10-09T06:14:00;18.23;;;15.13;;
6019;SDS011;3038;51.122;6.840;2023-10-09T06:16:37;18.03;;;14.87;;
6019;SDS011;3038;51.122;6.840;2023-10-09T06:19:06;17.57;;;14.57;;
6019;SDS011;3038;51.122;6.840;2023-10-09T06:21:45;18.23;;;15.73;;
6019;SDS011;3038;51.122;6.840;2023-10-09T06:24:24;17.23;;;13.40;;
6019;SDS011;3038;51.122;6.840;2023-10-09T06:26:51;17.40;;;14.27;;
6019;SDS011;3038;51.122;6.840;2023-10-09T06:29:36;20.87;;;15.30;;
6019;SDS011;3038;51.122;6.840;2023-10-09T06:32:09;22.07;;;14.93;;
6019;SDS011;3038;51.122;6.840;2023-10-09T06:35:00;19.03;;;14.00;;
6019;SDS011;3038;51.122;6.840;2023-10-09T06:37:43;19.13;;;14.30;;
6019;SDS011;3038;51.122;6.840;2023-10-09T06:40:31;18.80;;;12.90;;
6019;SDS011;3038;51.122;6.840;2023-10-09T06:43:03;19.97;;;14.00;;
6019;SDS011;3038;51.122;6.840;2023-10-09T06:45:43;19.07;;;14.50;;
6019;SDS011;3038;51.122;6.840;2023-10-09T06:48:12;16.87;;;14.30;;
6019;SDS011;3038;51.122;6.840;2023-10-09T06:50:57;18.67;;;13.83;;
6019;SDS011;3038;51.122;6.840;2023-10-09T06:53:41;19.73;;;14.33;;
6019;SDS011;3038;51.122;6.840;2023-10-09T06:56:24;15.90;;;14.23;;
6019;SDS011;3038;51.122;6.840;2023-10-09T06:58:50;17.47;;;14.30;;
6019;SDS011;3038;51.122;6.840;2023-10-09T07:01:22;15.57;;;13.97;;
6019;SDS011;3038;51.122;6.840;2023-10-09T07:03:50;21.80;;;13.87;;
6019;SDS011;3038;51.122;6.840;2023-10-09T07:06:19;16.23;;;13.13;;
6019;SDS011;3038;51.122;6.840;2023-10-09T07:09:03;17.57;;;13.73;;
6019;SDS011;3038;51.122;6.840;2023-10-09T07:11:34;16.40;;;13.93;;
6019;SDS011;3038;51.122;6.840;2023-10-09T07:14:07;14.40;;;13.00;;
6019;SDS011;3038;51.122;6.840;2023-10-09T07:16:33;16.00;;;13.40;;
6019;SDS011;3038;51.122;6.840;2023-10-09T07:19:22;19.07;;;14.00;;
6019;SDS011;3038;51.122;6.840;2023-10-09T07:22:14;17.20;;;14.00;;
6019;SDS011;3038;51.122;6.840;2023-10-09T07:24:54;14.37;;;13.10;;
6019;SDS011;3038;51.122;6.840;2023-10-09T07:27:23;15.03;;;12.77;;
6019;SDS011;3038;51.122;6.840;2023-10-09T07:30:24;16.17;;;14.47;;
6019;SDS011;3038;51.122;6.840;2023-10-09T07:33:04;16.80;;;13.60;;
6019;SDS011;3038;51.122;6.840;2023-10-09T07:35:35;13.20;;;11.20;;
6019;SDS011;3038;51.122;6.840;2023-10-09T07:38:07;16.43;;;13.33;;
6019;SDS011;3038;51.122;6.840;2023-10-09T07:40:53;15.00;;;13.20;;
6019;SDS011;3038;51.122;6.840;2023-10-09T07:43:20;14.13;;;12.63;;
6019;SDS011;3038;51.122;6.840;2023-10-09T07:46:08;19.57;;;14.07;;
6019;SDS011;3038;51.122;6.840;2023-10-09T07:49:17;13.53;;;12.13;;
6019;SDS011;3038;51.122;6.840;2023-10-09T07:51:50;14.70;;;12.80;;
6019;SDS011;3038;51.122;6.840;2023-10-09T07:54:20;14.20;;;12.83;;
6019;SDS011;3038;51.122;6.840;2023-10-09T07:57:01;14.20;;;12.10;;
6019;SDS011;3038;51.122;6.840;2023-10-09T07:59:41;13.13;;;11.63;;
6019;SDS011;3038;51.122;6.840;2023-10-09T08:02:19;12.23;;;11.03;;
6019;SDS011;3038;51.122;6.840;2023-10-09T08:05:00;12.90;;;11.13;;
6019;SDS011;3038;51.122;6.840;2023-10-09T08:07:39;14.40;;;10.93;;
6019;SDS011;3038;51.122;6.840;2023-10-09T08:10:19;12.93;;;11.60;;
6019;SDS011;3038;51.122;6.840;2023-10-09T08:12:50;13.93;;;11.93;;
6019;SDS011;3038;51.122;6.840;2023-10-09T08:15:45;12.30;;;11.20;;
6019;SDS011;3038;51.122;6.840;2023-10-09T08:18:19;14.67;;;12.10;;
6019;SDS011;3038;51.122;6.840;2023-10-09T08:21:18;16.53;;;12.67;;
6019;SDS011;3038;51.122;6.840;2023-10-09T08:24:12;15.57;;;12.30;;
6019;SDS011;3038;51.122;6.840;2023-10-09T08:27:17;13.10;;;11.57;;
6019;SDS011;3038;51.122;6.840;2023-10-09T08:30:12;14.60;;;11.50;;
6019;SDS011;3038;51.122;6.840;2023-10-09T08:32:44;13.70;;;11.63;;
6019;SDS011;3038;51.122;6.840;2023-10-09T08:38:23;16.10;;;11.77;;
6019;SDS011;3038;51.122;6.840;2023-10-09T08:41:10;14.67;;;11.70;;
6019;SDS011;3038;51.122;6.840;2023-10-09T08:45:10;13.27;;;10.17;;
6019;SDS011;3038;51.122;6.840;2023-10-09T08:47:32;15.50;;;11.60;;
6019;SDS011;3038;51.122;6.840;2023-10-09T08:50:00;17.07;;;11.03;;
6019;SDS011;3038;51.122;6.840;2023-10-09T08:52:35;14.80;;;11.20;;
6019;SDS011;3038;51.122;6.840;2023-10-09T08:55:04;12.33;;;10.67;;
6019;SDS011;3038;51.122;6.840;2023-10-09T08:57:41;13.10;;;11.73;;
6019;SDS011;3038;51.122;6.840;2023-10-09T09:00:16;13.30;;;11.80;;
6019;SDS011;3038;51.122;6.840;2023-10-09T09:02:55;13.27;;;11.93;;
6019;SDS011;3038;51.122;6.840;2023-10-09T09:05:33;12.40;;;11.17;;
6019;SDS011;3038;51.122;6.840;2023-10-09T09:08:01;14.43;;;11.60;;
6019;SDS011;3038;51.122;6.840;2023-10-09T09:10:28;14.43;;;11.50;;
6019;SDS011;3038;51.122;6.840;2023-10-09T09:13:14;17.83;;;12.27;;
6019;SDS011;3038;51.122;6.840;2023-10-09T09:15:46;11.47;;;10.47;;
6019;SDS011;3038;51.122;6.840;2023-10-09T09:18:14;14.07;;;11.00;;
6019;SDS011;3038;51.122;6.840;2023-10-09T09:20:47;12.07;;;10.77;;
6019;SDS011;3038;51.122;6.840;2023-10-09T09:23:22;13.27;;;11.00;;
6019;SDS011;3038;51.122;6.840;2023-10-09T09:25:51;13.53;;;12.00;;
6019;SDS011;3038;51.122;6.840;2023-10-09T09:28:24;14.17;;;12.63;;
6019;SDS011;3038;51.122;6.840;2023-10-09T09:30:52;13.37;;;11.97;;
6019;SDS011;3038;51.122;6.840;2023-10-09T09:33:23;13.83;;;11.53;;
6019;SDS011;3038;51.122;6.840;2023-10-09T09:36:05;14.77;;;12.70;;
6019;SDS011;3038;51.122;6.840;2023-10-09T09:38:34;16.43;;;12.47;;
6019;SDS011;3038;51.122;6.840;2023-10-09T09:41:07;16.17;;;12.00;;
6019;SDS011;3038;51.122;6.840;2023-10-09T09:43:34;12.30;;;11.10;;
6019;SDS011;3038;51.122;6.840;2023-10-09T09:46:05;13.43;;;11.00;;
6019;SDS011;3038;51.122;6.840;2023-10-09T09:48:38;15.23;;;12.20;;
6019;SDS011;3038;51.122;6.840;2023-10-09T09:51:12;12.90;;;10.37;;
6019;SDS011;3038;51.122;6.840;2023-10-09T09:53:42;13.33;;;10.77;;
6019;SDS011;3038;51.122;6.840;2023-10-09T09:56:14;12.40;;;9.70;;
6019;SDS011;3038;51.122;6.840;2023-10-09T09:58:49;11.67;;;10.43;;
6019;SDS011;3038;51.122;6.840;2023-10-09T10:01:43;12.07;;;10.00;;
6019;SDS011;3038;51.122;6.840;2023-10-09T10:04:42;12.07;;;10.87;;
6019;SDS011;3038;51.122;6.840;2023-10-09T10:07:18;14.50;;;10.43;;
6019;SDS011;3038;51.122;6.840;2023-10-09T10:09:46;12.37;;;10.97;;
6019;SDS011;3038;51.122;6.840;2023-10-09T10:12:25;10.27;;;9.20;;
6019;SDS011;3038;51.122;6.840;2023-10-09T10:15:40;11.33;;;10.10;;
6019;SDS011;3038;51.122;6.840;2023-10-09T10:18:23;12.53;;;11.17;;
6019;SDS011;3038;51.122;6.840;2023-10-09T10:21:43;14.43;;;9.13;;
6019;SDS011;3038;51.122;6.840;2023-10-09T10:25:03;10.30;;;9.07;;
6019;SDS011;3038;51.122;6.840;2023-10-09T10:28:19;13.30;;;8.17;;
6019;SDS011;3038;51.122;6.840;2023-10-09T10:31:09;10.83;;;8.70;;
6019;SDS011;3038;51.122;6.840;2023-10-09T10:37:49;12.10;;;10.13;;
6019;SDS011;3038;51.122;6.840;2023-10-09T10:40:34;14.70;;;9.30;;
6019;SDS011;3038;51.122;6.840;2023-10-09T10:43:15;11.47;;;8.30;;
6019;SDS011;3038;51.122;6.840;2023-10-09T10:46:06;9.50;;;7.70;;
6019;SDS011;3038;51.122;6.840;2023-10-09T10:55:16;14.80;;;8.50;;
6019;SDS011;3038;51.122;6.840;2023-10-09T10:58:17;11.37;;;10.17;;
6019;SDS011;3038;51.122;6.840;2023-10-09T11:01:08;12.50;;;9.17;;
6019;SDS011;3038;51.122;6.840;2023-10-09T11:04:13;10.87;;;8.73;;
6019;SDS011;3038;51.122;6.840;2023-10-09T11:06:56;11.57;;;8.20;;
6019;SDS011;3038;51.122;6.840;2023-10-09T11:10:09;10.63;;;9.63;;
6019;SDS011;3038;51.122;6.840;2023-10-09T11:12:47;11.97;;;10.40;;
6019;SDS011;3038;51.122;6.840;2023-10-09T11:15:35;11.17;;;9.87;;
6019;SDS011;3038;51.122;6.840;2023-10-09T11:18:43;11.13;;;9.40;;
6019;SDS011;3038;51.122;6.840;2023-10-09T11:21:15;10.93;;;9.83;;
6019;SDS011;3038;51.122;6.840;2023-10-09T11:24:13;11.73;;;9.63;;
6019;SDS011;3038;51.122;6.840;2023-10-09T11:26:52;13.77;;;10.60;;
6019;SDS011;3038;51.122;6.840;2023-10-09T11:29:24;12.90;;;10.47;;
6019;SDS011;3038;51.122;6.840;2023-10-09T11:32:09;10.80;;;9.70;;
6019;SDS011;3038;51.122;6.840;2023-10-09T11:34:46;16.20;;;10.90;;
6019;SDS011;3038;51.122;6.840;2023-10-09T11:37:27;13.00;;;11.30;;
6019;SDS011;3038;51.122;6.840;2023-10-09T11:39:53;12.07;;;10.83;;
6019;SDS011;3038;51.122;6.840;2023-10-09T11:42:22;14.50;;;10.57;;
6019;SDS011;3038;51.122;6.840;2023-10-09T11:45:24;12.77;;;10.13;;
6019;SDS011;3038;51.122;6.840;2023-10-09T11:48:18;19.33;;;11.20;;
6019;SDS011;3038;51.122;6.840;2023-10-09T11:51:12;12.70;;;11.43;;
6019;SDS011;3038;51.122;6.840;2023-10-09T11:53:46;14.13;;;11.50;;
6019;SDS011;3038;51.122;6.840;2023-10-09T11:56:26;12.40;;;11.20;;
6019;SDS011;3038;51.122;6.840;2023-10-09T11:58:52;14.30;;;11.40;;
6019;SDS011;3038;51.122;6.840;2023-10-09T12:01:19;14.37;;;11.67;;
6019;SDS011;3038;51.122;6.840;2023-10-09T12:03:51;12.00;;;10.80;;
6019;SDS011;3038;51.122;6.840;2023-10-09T12:06:20;15.57;;;11.87;;
6019;SDS011;3038;51.122;6.840;2023-10-09T12:09:01;11.67;;;10.53;;
6019;SDS011;3038;51.122;6.840;2023-10-09T12:11:35;13.43;;;11.73;;
6019;SDS011;3038;51.122;6.840;2023-10-09T12:14:04;15.93;;;11.57;;
6019;SDS011;3038;51.122;6.840;2023-10-09T12:16:39;13.37;;;12.00;;
6019;SDS011;3038;51.122;6.840;2023-10-09T12:19:14;17.33;;;11.90;;
6019;SDS011;3038;51.122;6.840;2023-10-09T12:21:43;16.70;;;12.27;;
6019;SDS011;3038;51.122;6.840;2023-10-09T12:24:19;12.97;;;11.60;;
6019;SDS011;3038;51.122;6.840;2023-10-09T12:26:45;13.00;;;11.40;;
6019;SDS011;3038;51.122;6.840;2023-10-09T12:29:13;12.17;;;9.93;;
6019;SDS011;3038;51.122;6.840;2023-10-09T12:31:41;15.23;;;10.67;;
6019;SDS011;3038;51.122;6.840;2023-10-09T12:34:10;10.87;;;9.70;;
6019;SDS011;3038;51.122;6.840;2023-10-09T12:36:41;14.80;;;11.10;;
6019;SDS011;3038;51.122;6.840;2023-10-09T12:39:18;11.67;;;9.10;;
6019;SDS011;3038;51.122;6.840;2023-10-09T12:41:58;12.90;;;9.60;;
6019;SDS011;3038;51.122;6.840;2023-10-09T12:44:42;11.37;;;9.40;;
6019;SDS011;3038;51.122;6.840;2023-10-09T12:47:09;12.40;;;9.33;;
6019;SDS011;3038;51.122;6.840;2023-10-09T12:49:41;12.67;;;9.87;;
6019;SDS011;3038;51.122;6.840;2023-10-09T12:52:07;10.43;;;9.27;;
6019;SDS011;3038;51.122;6.840;2023-10-09T12:54:43;12.50;;;9.97;;
6019;SDS011;3038;51.122;6.840;2023-10-09T12:57:20;10.90;;;9.77;;
6019;SDS011;3038;51.122;6.840;2023-10-09T12:59:49;13.20;;;10.03;;
6019;SDS011;3038;51.122;6.840;2023-10-09T13:02:25;11.07;;;10.00;;
6019;SDS011;3038;51.122;6.840;2023-10-09T13:04:56;11.83;;;10.30;;
6019;SDS011;3038;51.122;6.840;2023-10-09T13:07:55;12.47;;;10.67;;
6019;SDS011;3038;51.122;6.840;2023-10-09T13:10:33;10.90;;;9.37;;
6019;SDS011;3038;51.122;6.840;2023-10-09T13:13:06;12.53;;;10.60;;
6019;SDS011;3038;51.122;6.840;2023-10-09T13:15:33;10.63;;;9.50;;
6019;SDS011;3038;51.122;6.840;2023-10-09T13:18:10;13.37;;;10.70;;
6019;SDS011;3038;51.122;6.840;2023-10-09T13:20:37;10.57;;;8.97;;
6019;SDS011;3038;51.122;6.840;2023-10-09T13:23:05;12.67;;;10.30;;
6019;SDS011;3038;51.122;6.840;2023-10-09T13:25:31;11.47;;;10.27;;
6019;SDS011;3038;51.122;6.840;2023-10-09T13:28:04;12.13;;;10.40;;
6019;SDS011;3038;51.122;6.840;2023-10-09T13:30:32;13.87;;;10.13;;
6019;SDS011;3038;51.122;6.840;2023-10-09T13:33:04;12.53;;;11.07;;
6019;SDS011;3038;51.122;6.840;2023-10-09T13:35:36;11.17;;;10.07;;
6019;SDS011;3038;51.122;6.840;2023-10-09T13:38:15;13.70;;;10.60;;
6019;SDS011;3038;51.122;6.840;2023-10-09T13:40:46;14.97;;;9.90;;
6019;SDS011;3038;51.122;6.840;2023-10-09T13:43:43;10.70;;;9.70;;
6019;SDS011;3038;51.122;6.840;2023-10-09T13:46:19;17.87;;;11.40;;
6019;SDS011;3038;51.122;6.840;2023-10-09T13:48:55;14.23;;;10.30;;
6019;SDS011;3038;51.122;6.840;2023-10-09T13:51:24;10.87;;;9.77;;
6019;SDS011;3038;51.122;6.840;2023-10-09T13:53:50;16.83;;;12.03;;
6019;SDS011;3038;51.122;6.840;2023-10-09T13:56:18;10.83;;;9.73;;
6019;SDS011;3038;51.122;6.840;2023-10-09T14:01:13;11.77;;;9.50;;
6019;SDS011;3038;51.122;6.840;2023-10-09T14:03:51;10.57;;;9.57;;
6019;SDS011;3038;51.122;6.840;2023-10-09T14:06:26;11.03;;;9.90;;
6019;SDS011;3038;51.122;6.840;2023-10-09T14:08:58;14.93;;;10.70;;
6019;SDS011;3038;51.122;6.840;2023-10-09T14:11:31;12.20;;;10.33;;
6019;SDS011;3038;51.122;6.840;2023-10-09T14:14:05;11.07;;;9.90;;
6019;SDS011;3038;51.122;6.840;2023-10-09T14:16:35;11.33;;;10.20;;
6019;SDS011;3038;51.122;6.840;2023-10-09T14:19:10;13.50;;;9.80;;
6019;SDS011;3038;51.122;6.840;2023-10-09T14:21:55;11.57;;;10.37;;
6019;SDS011;3038;51.122;6.840;2023-10-09T14:24:26;13.07;;;10.77;;
6019;SDS011;3038;51.122;6.840;2023-10-09T14:27:06;13.90;;;10.40;;
6019;SDS011;3038;51.122;6.840;2023-10-09T14:29:51;12.30;;;9.93;;
6019;SDS011;3038;51.122;6.840;2023-10-09T14:32:21;12.00;;;10.40;;
6019;SDS011;3038;51.122;6.840;2023-10-09T14:35:14;14.17;;;11.30;;
6019;SDS011;3038;51.122;6.840;2023-10-09T14:37:48;11.93;;;10.73;;
6019;SDS011;3038;51.122;6.840;2023-10-09T14:41:01;13.27;;;10.57;;
6019;SDS011;3038;51.122;6.840;2023-10-09T14:44:11;13.50;;;10.97;;
6019;SDS011;3038;51.122;6.840;2023-10-09T14:46:44;12.70;;;10.73;;
6019;SDS011;3038;51.122;6.840;2023-10-09T14:49:15;11.47;;;10.43;;
6019;SDS011;3038;51.122;6.840;2023-10-09T14:52:08;13.30;;;10.77;;
6019;SDS011;3038;51.122;6.840;2023-10-09T14:55:09;11.90;;;10.63;;
6019;SDS011;3038;51.122;6.840;2023-10-09T14:57:54;11.07;;;9.83;;
6019;SDS011;3038;51.122;6.840;2023-10-09T15:00:29;12.27;;;9.87;;
6019;SDS011;3038;51.122;6.840;2023-10-09T15:02:59;12.27;;;10.33;;
6019;SDS011;3038;51.122;6.840;2023-10-09T15:05:33;14.30;;;10.50;;
6019;SDS011;3038;51.122;6.840;2023-10-09T15:07:59;12.07;;;10.00;;
6019;SDS011;3038;51.122;6.840;2023-10-09T15:10:28;11.70;;;9.83;;
6019;SDS011;3038;51.122;6.840;2023-10-09T15:12:54;15.33;;;12.63;;
6019;SDS011;3038;51.122;6.840;2023-10-09T15:15:19;11.23;;;10.00;;
6019;SDS011;3038;51.122;6.840;2023-10-09T15:17:50;12.13;;;10.93;;
6019;SDS011;3038;51.122;6.840;2023-10-09T15:20:16;10.73;;;9.63;;
6019;SDS011;3038;51.122;6.840;2023-10-09T15:22:42;13.30;;;10.33;;
6019;SDS011;3038;51.122;6.840;2023-10-09T15:25:45;10.67;;;9.67;;
6019;SDS011;3038;51.122;6.840;2023-10-09T15:28:36;11.07;;;10.07;;
6019;SDS011;3038;51.122;6.840;2023-10-09T15:31:19;11.17;;;9.70;;
6019;SDS011;3038;51.122;6.840;2023-10-09T15:34:01;14.40;;;10.50;;
6019;SDS011;3038;51.122;6.840;2023-10-09T15:36:33;11.53;;;9.50;;
6019;SDS011;3038;51.122;6.840;2023-10-09T15:39:12;12.87;;;11.30;;
6019;SDS011;3038;51.122;6.840;2023-10-09T15:41:39;18.20;;;11.40;;
6019;SDS011;3038;51.122;6.840;2023-10-09T15:44:07;10.23;;;9.10;;
6019;SDS011;3038;51.122;6.840;2023-10-09T15:46:42;14.00;;;9.80;;
6019;SDS011;3038;51.122;6.840;2023-10-09T15:49:10;12.90;;;11.30;;
6019;SDS011;3038;51.122;6.840;2023-10-09T15:51:38;10.70;;;9.50;;
6019;SDS011;3038;51.122;6.840;2023-10-09T15:54:03;11.73;;;10.63;;
6019;SDS011;3038;51.122;6.840;2023-10-09T15:56:29;11.13;;;10.00;;
6019;SDS011;3038;51.122;6.840;2023-10-09T15:58:57;14.00;;;11.20;;
6019;SDS011;3038;51.122;6.840;2023-10-09T16:01:24;11.93;;;10.10;;
6019;SDS011;3038;51.122;6.840;2023-10-09T16:03:50;13.80;;;11.00;;
6019;SDS011;3038;51.122;6.840;2023-10-09T16:06:16;15.60;;;12.47;;
6019;SDS011;3038;51.122;6.840;2023-10-09T16:08:45;11.63;;;10.53;;
6019;SDS011;3038;51.122;6.840;2023-10-09T16:11:18;16.83;;;11.47;;
6019;SDS011;3038;51.122;6.840;2023-10-09T16:13:45;11.50;;;10.40;;
6019;SDS011;3038;51.122;6.840;2023-10-09T16:16:10;19.83;;;11.80;;
6019;SDS011;3038;51.122;6.840;2023-10-09T16:18:38;12.97;;;10.60;;
6019;SDS011;3038;51.122;6.840;2023-10-09T16:21:05;12.50;;;11.00;;
6019;SDS011;3038;51.122;6.840;2023-10-09T16:23:37;17.60;;;12.37;;